Time;durP1;ratioP1;P1;durP2;ratioP2;P2;SDS_P1;SDS_P2;PMS_P1;PMS_P2;Temp;Humidity;BMP_temperature;BMP_pressure;BME280_temperature;BME280_humidity;BME280_pressure;Samples;Min_cycle;Max_cycle;Signal;HPM_P1;HPM_P2
2021/04/15 07:29:06;;;;;;;2.72;0.70;;;17.70;53.60;;;;;;5054614;27;20400;-41
2021/04/15 07:31:44;;;;;;;0.77;0.70;;;19.00;52.60;;;;;;5042925;28;20021;-42
2021/04/15 07:34:24;;;;;;;3.25;1.20;;;18.90;52.50;;;;;;5047557;28;20032;-43
2021/04/15 07:37:09;;;;;;;1.88;0.73;;;18.90;53.70;;;;;;5043199;28;20017;-41
2021/04/15 07:39:56;;;;;;;1.13;0.98;;;18.90;53.60;;;;;;5045847;28;20032;-40
2021/04/15 07:42:45;;;;;;;1.98;0.75;;;18.80;54.00;;;;;;5044104;28;20065;-41
2021/04/15 07:45:42;;;;;;;2.40;0.88;;;18.80;53.20;;;;;;5037382;28;20128;-43
2021/04/15 07:48:12;;;;;;;1.00;1.00;;;19.00;53.80;;;;;;5044885;28;20090;-41
2021/04/15 07:51:03;;;;;;;0.80;0.80;;;19.10;53.50;;;;;;5047724;28;20078;-38
2021/04/15 07:54:03;;;;;;;4.30;0.60;;;19.10;53.30;;;;;;5046103;28;20017;-41
2021/04/15 07:57:02;;;;;;;1.75;0.90;;;19.20;53.10;;;;;;5048490;28;20021;-40
2021/04/15 07:59:42;;;;;;;2.15;0.95;;;18.90;54.00;;;;;;5038978;28;20025;-40
2021/04/15 08:02:46;;;;;;;0.82;0.82;;;18.80;54.10;;;;;;5050648;28;20047;-42
2021/04/15 08:05:21;;;;;;;1.88;1.13;;;18.90;53.70;;;;;;5046476;28;20153;-40
2021/04/15 08:07:56;;;;;;;1.20;1.10;;;18.80;53.90;;;;;;5050785;28;20025;-42
2021/04/15 08:10:34;;;;;;;0.77;0.77;;;18.60;54.00;;;;;;5050047;28;20031;-42
2021/04/15 08:13:19;;;;;;;1.98;0.95;;;18.70;54.10;;;;;;5044131;28;20076;-41
2021/04/15 08:16:16;;;;;;;1.52;1.02;;;18.60;54.40;;;;;;5050424;28;20414;-42
2021/04/15 08:18:54;;;;;;;1.30;1.10;;;18.50;54.70;;;;;;5052607;28;20029;-40
2021/04/15 08:21:45;;;;;;;1.85;1.10;;;18.50;55.00;;;;;;5050994;28;20024;-42
2021/04/15 08:24:34;;;;;;;2.25;1.10;;;18.50;55.00;;;;;;5047640;28;20045;-42
2021/04/15 08:27:37;;;;;;;1.50;1.40;;;18.60;54.70;;;;;;5038521;28;20554;-42
2021/04/15 08:30:21;;;;;;;1.00;1.00;;;18.70;54.30;;;;;;5045385;28;20032;-42
2021/04/15 08:32:47;;;;;;;1.60;1.45;;;18.80;54.60;;;;;;5045995;28;20105;-42
2021/04/15 08:35:54;;;;;;;3.35;1.60;;;18.70;54.60;;;;;;5052009;28;20119;-43
2021/04/15 08:38:32;;;;;;;4.90;1.42;;;18.70;54.90;;;;;;5047440;28;20021;-43
2021/04/15 08:41:12;;;;;;;1.20;1.13;;;18.70;55.30;;;;;;5039692;28;20052;-43
2021/04/15 08:44:16;;;;;;;3.25;1.90;;;18.70;55.10;;;;;;5038109;28;20053;-45
2021/04/15 08:46:49;;;;;;;1.58;1.48;;;18.80;55.00;;;;;;5002038;28;20431;-44
2021/04/15 08:49:35;;;;;;;1.55;1.45;;;18.80;54.70;;;;;;4954468;28;20046;-42
2021/04/15 08:52:23;;;;;;;1.98;1.88;;;18.80;55.10;;;;;;5005006;28;20061;-43
2021/04/15 08:55:09;;;;;;;3.00;2.03;;;18.90;54.40;;;;;;5003670;28;20038;-44
2021/04/15 08:58:14;;;;;;;4.45;1.70;;;18.90;54.40;;;;;;5004809;28;20116;-46
2021/04/15 09:00:57;;;;;;;2.67;1.88;;;18.90;54.80;;;;;;4988144;28;20050;-45
2021/04/15 09:03:47;;;;;;;4.18;1.88;;;19.00;54.10;;;;;;4988804;28;20464;-45
2021/04/15 09:06:34;;;;;;;2.85;1.75;;;19.00;54.10;;;;;;5006604;28;20096;-43
2021/04/15 09:09:20;;;;;;;3.72;2.05;;;19.10;54.00;;;;;;5004177;28;20522;-44
2021/04/15 09:12:18;;;;;;;16.98;2.42;;;19.20;53.70;;;;;;4998334;28;20076;-44
2021/04/15 09:15:07;;;;;;;2.67;2.10;;;19.20;53.50;;;;;;5002388;28;20420;-43
2021/04/15 09:17:52;;;;;;;2.13;2.00;;;19.20;53.50;;;;;;5004517;28;20050;-45
2021/04/15 09:20:23;;;;;;;;;;;19.30;53.40;;;;;;5004615;28;20046;-43
2021/04/15 09:23:11;;;;;;;2.60;2.20;;;19.40;53.40;;;;;;5011958;28;20009;-43
2021/04/15 09:25:40;;;;;;;2.58;2.47;;;19.40;53.20;;;;;;5041826;28;20045;-42
2021/04/15 09:28:32;;;;;;;2.20;2.05;;;19.40;53.20;;;;;;5042955;28;20136;-44
2021/04/15 09:31:06;;;;;;;2.40;2.20;;;19.50;53.00;;;;;;5040180;28;20037;-44
2021/04/15 09:33:53;;;;;;;3.55;1.95;;;19.50;53.00;;;;;;5028148;28;20045;-44
2021/04/15 09:36:31;;;;;;;1.80;1.67;;;19.50;53.00;;;;;;5042404;28;20243;-40
2021/04/15 09:39:05;;;;;;;1.45;1.35;;;19.50;53.00;;;;;;5040166;28;20049;-46
2021/04/15 09:42:01;;;;;;;2.65;1.80;;;19.60;52.90;;;;;;5042850;28;20406;-42
2021/04/15 09:44:37;;;;;;;2.20;1.80;;;19.60;52.70;;;;;;5040546;28;20041;-45
2021/04/15 09:47:24;;;;;;;2.42;1.58;;;19.70;53.30;;;;;;5040530;28;20055;-44
2021/04/15 09:50:19;;;;;;;1.50;1.40;;;19.80;52.90;;;;;;5041764;28;20049;-45
2021/04/15 09:53:05;;;;;;;2.17;1.52;;;19.90;52.20;;;;;;5042879;28;20075;-44
2021/04/15 09:55:34;;;;;;;2.75;1.85;;;19.90;52.30;;;;;;5039026;28;20411;-44
2021/04/15 09:58:05;;;;;;;3.58;1.50;;;19.90;52.60;;;;;;5027619;28;20522;-43
2021/04/15 10:00:47;;;;;;;1.70;1.48;;;19.90;52.40;;;;;;5031704;28;20041;-45
2021/04/15 10:03:20;;;;;;;1.23;1.23;;;19.90;52.30;;;;;;5044008;28;20041;-44
2021/04/15 10:06:02;;;;;;;1.70;1.20;;;20.00;52.30;;;;;;5041302;28;20769;-43
2021/04/15 10:08:33;;;;;;;2.35;1.20;;;20.10;52.30;;;;;;5047853;28;20291;-44
2021/04/15 10:11:35;;;;;;;1.42;1.15;;;20.10;52.00;;;;;;5044969;28;20025;-44
2021/04/15 10:14:39;;;;;;;1.30;1.13;;;20.20;51.80;;;;;;5046521;28;20029;-44
2021/04/15 10:17:28;;;;;;;1.30;1.20;;;20.20;51.80;;;;;;5046297;28;20039;-44
2021/04/15 10:20:33;;;;;;;1.08;1.05;;;20.30;51.50;;;;;;5048803;28;20506;-45
2021/04/15 10:23:21;;;;;;;1.00;1.00;;;20.20;52.40;;;;;;5032781;28;20517;-46
2021/04/15 10:25:55;;;;;;;1.20;1.10;;;20.20;51.60;;;;;;5032911;28;20030;-45
2021/04/15 10:28:52;;;;;;;1.15;1.08;;;20.30;51.50;;;;;;5040318;28;20051;-44
2021/04/15 10:31:17;;;;;;;1.50;1.40;;;20.40;51.20;;;;;;5042686;28;20033;-46
2021/04/15 10:33:52;;;;;;;1.40;1.30;;;20.30;51.30;;;;;;5039349;28;20596;-45
2021/04/15 10:36:49;;;;;;;1.80;1.70;;;20.30;51.30;;;;;;5046228;28;20037;-44
2021/04/15 10:39:38;;;;;;;2.30;2.10;;;20.40;51.30;;;;;;5042183;28;20402;-45
2021/04/15 10:42:14;;;;;;;2.65;2.45;;;20.20;51.30;;;;;;4685459;28;10001150;-44
2021/04/15 10:44:55;;;;;;;2.80;2.60;;;20.20;51.30;;;;;;5040055;28;20064;-46
2021/04/15 10:47:36;;;;;;;3.97;3.67;;;20.30;51.20;;;;;;5058722;28;20052;-44
2021/04/15 10:50:20;;;;;;;4.82;4.28;;;20.30;50.90;;;;;;5046488;28;20045;-44
2021/04/15 10:52:49;;;;;;;3.75;3.45;;;20.30;50.50;;;;;;5045223;28;20457;-45
2021/04/15 10:55:18;;;;;;;3.90;3.60;;;20.40;50.50;;;;;;5043593;28;20029;-46
2021/04/15 10:57:44;;;;;;;4.45;4.05;;;20.50;49.90;;;;;;5045457;28;20028;-46
2021/04/15 11:00:19;;;;;;;4.25;3.97;;;20.40;49.20;;;;;;5040976;28;20449;-41
2021/04/15 11:02:49;;;;;;;4.35;4.07;;;20.40;50.20;;;;;;5043437;28;20029;-44
2021/04/15 11:05:43;;;;;;;4.53;4.13;;;20.40;49.80;;;;;;5041679;28;20509;-42
2021/04/15 11:08:16;;;;;;;5.30;4.70;;;20.40;49.60;;;;;;5047518;28;20683;-43
2021/04/15 11:10:42;;;;;;;5.20;4.70;;;20.40;49.50;;;;;;5041618;28;20108;-42
2021/04/15 11:13:18;;;;;;;6.32;5.00;;;20.50;49.30;;;;;;5041646;28;20112;-42
2021/04/15 11:15:49;;;;;;;5.47;5.05;;;20.40;49.40;;;;;;5040015;28;20017;-43
2021/04/15 11:18:21;;;;;;;5.22;4.72;;;20.40;49.70;;;;;;5044317;28;20029;-43
2021/04/15 11:20:47;;;;;;;5.95;5.45;;;20.30;49.80;;;;;;5035140;28;20029;-44
2021/04/15 11:23:16;;;;;;;7.60;5.40;;;20.30;50.00;;;;;;5044249;28;20358;-43
2021/04/15 11:25:43;;;;;;;5.03;4.63;;;20.40;50.20;;;;;;5041025;28;20443;-44
2021/04/15 11:28:18;;;;;;;4.63;4.22;;;20.40;50.20;;;;;;5041407;28;20084;-44
2021/04/15 11:30:51;;;;;;;4.18;3.95;;;20.40;50.40;;;;;;5044791;28;20060;-42
2021/04/15 11:33:34;;;;;;;4.88;4.43;;;20.40;50.40;;;;;;5036858;28;20029;-43
2021/04/15 11:36:07;;;;;;;6.05;4.43;;;20.50;50.20;;;;;;5040017;28;20018;-43
2021/04/15 11:38:33;;;;;;;5.03;4.40;;;20.50;50.50;;;;;;5024566;28;20598;-43
2021/04/15 11:40:59;;;;;;;4.55;4.18;;;20.60;50.80;;;;;;5040294;28;20029;-42
2021/04/15 11:43:27;;;;;;;6.15;4.75;;;20.50;50.90;;;;;;5043132;28;20598;-44
2021/04/15 11:45:53;;;;;;;5.30;4.82;;;20.60;50.90;;;;;;5041445;28;20060;-42
2021/04/15 11:48:28;;;;;;;4.90;4.60;;;20.60;50.90;;;;;;5030324;28;20079;-43
2021/04/15 11:51:18;;;;;;;4.50;4.20;;;20.50;50.80;;;;;;5047418;28;20044;-44
2021/04/15 11:53:51;;;;;;;5.20;4.72;;;20.50;50.90;;;;;;5040372;28;20033;-41
2021/04/15 11:56:30;;;;;;;4.97;4.25;;;20.60;51.50;;;;;;5046670;28;20029;-42
2021/04/15 11:59:13;;;;;;;5.15;4.70;;;20.80;50.80;;;;;;5045185;28;20036;-40
2021/04/15 12:01:39;;;;;;;5.13;4.63;;;20.70;50.30;;;;;;5042283;28;20032;-44
2021/04/15 12:04:08;;;;;;;5.25;4.85;;;20.70;50.10;;;;;;5043545;28;20666;-44
2021/04/15 12:06:47;;;;;;;5.15;4.32;;;20.70;50.10;;;;;;5046325;28;20025;-43
2021/04/15 12:09:14;;;;;;;5.30;4.88;;;20.80;50.00;;;;;;5043093;28;20030;-46
2021/04/15 12:12:09;;;;;;;4.25;4.05;;;20.80;49.40;;;;;;5042482;28;20022;-43
2021/04/15 12:14:35;;;;;;;3.65;3.45;;;20.80;49.70;;;;;;5034507;28;20044;-43
2021/04/15 12:17:11;;;;;;;4.70;4.30;;;20.80;49.50;;;;;;5043502;28;20029;-42
2021/04/15 12:20:05;;;;;;;4.80;4.43;;;20.80;49.20;;;;;;5044859;28;20033;-44
2021/04/15 12:22:49;;;;;;;5.70;5.15;;;20.80;49.20;;;;;;5045797;28;20155;-44
2021/04/15 12:25:25;;;;;;;4.97;4.68;;;20.80;48.70;;;;;;5041384;28;20387;-41
2021/04/15 12:28:13;;;;;;;5.70;4.03;;;20.80;48.50;;;;;;5043888;28;20586;-44
2021/04/15 12:30:39;;;;;;;4.47;4.10;;;20.80;48.60;;;;;;5030456;28;20124;-45
2021/04/15 12:33:06;;;;;;;4.90;4.50;;;20.90;48.60;;;;;;5045794;28;20132;-43
2021/04/15 12:35:51;;;;;;;4.65;4.35;;;20.90;48.80;;;;;;5040914;28;20037;-44
2021/04/15 12:38:31;;;;;;;;;;;20.90;48.30;;;;;;5026108;28;20029;-44
2021/04/15 12:40:58;;;;;;;4.45;4.22;;;20.90;48.30;;;;;;5042932;28;19909;-44
2021/04/15 12:43:27;;;;;;;4.85;4.38;;;20.90;47.60;;;;;;5040833;28;20470;-43
2021/04/15 12:46:03;;;;;;;4.50;4.28;;;21.00;47.80;;;;;;5042744;28;20048;-43
2021/04/15 12:48:34;;;;;;;4.57;4.28;;;20.90;47.90;;;;;;5044416;28;20041;-46
2021/04/15 12:51:00;;;;;;;4.70;4.40;;;21.00;47.60;;;;;;5036144;28;20716;-44
2021/04/15 12:53:25;;;;;;;4.15;3.90;;;21.00;48.10;;;;;;5044010;28;20123;-43
2021/04/15 12:55:51;;;;;;;4.45;4.15;;;20.90;47.60;;;;;;5045836;28;20021;-40
2021/04/15 12:58:18;;;;;;;4.10;3.80;;;21.00;47.00;;;;;;5040629;28;20025;-41
2021/04/15 13:00:46;;;;;;;3.63;3.42;;;21.00;46.90;;;;;;5047962;28;20440;-44
2021/04/15 13:03:30;;;;;;;3.78;3.47;;;21.00;47.10;;;;;;5037818;28;20060;-44
2021/04/15 13:06:01;;;;;;;3.63;3.43;;;21.00;46.90;;;;;;5029029;28;20158;-43
2021/04/15 13:08:33;;;;;;;3.58;3.38;;;21.00;47.30;;;;;;5036172;28;20388;-43
2021/04/15 13:10:58;;;;;;;3.72;3.53;;;21.00;46.80;;;;;;5043649;28;20040;-44
2021/04/15 13:13:42;;;;;;;3.58;3.38;;;21.00;46.90;;;;;;5027278;28;20033;-42
2021/04/15 13:16:34;;;;;;;3.80;3.50;;;21.00;46.90;;;;;;5040450;28;20497;-43
2021/04/15 13:19:00;;;;;;;3.30;3.10;;;21.00;46.30;;;;;;5041074;28;20102;-44
2021/04/15 13:21:33;;;;;;;4.00;3.63;;;21.00;46.80;;;;;;5042808;28;20033;-44
2021/04/15 13:23:59;;;;;;;3.83;3.53;;;21.10;46.30;;;;;;5044605;28;20537;-44
2021/04/15 13:26:35;;;;;;;4.05;3.85;;;21.10;46.60;;;;;;5041854;28;20021;-42
2021/04/15 13:29:15;;;;;;;3.25;3.05;;;21.00;46.60;;;;;;5033371;28;20574;-44
2021/04/15 13:31:45;;;;;;;3.05;2.85;;;21.00;46.60;;;;;;5047077;28;20491;-43
2021/04/15 13:34:13;;;;;;;2.92;2.80;;;21.00;46.70;;;;;;5044930;28;20028;-45
2021/04/15 13:36:39;;;;;;;3.08;2.88;;;21.00;46.50;;;;;;5047048;28;20039;-45
2021/04/15 13:39:08;;;;;;;2.95;2.75;;;21.00;46.50;;;;;;5042213;28;20386;-44
2021/04/15 13:41:52;;;;;;;3.95;3.03;;;21.00;46.40;;;;;;5036258;28;20411;-44
2021/04/15 13:45:11;;;;;;;3.70;3.40;;;21.00;45.90;;;;;;5043514;28;20422;-41
2021/04/15 13:47:47;;;;;;;3.30;3.00;;;20.90;46.00;;;;;;4984518;28;20046;-42
2021/04/15 13:50:13;;;;;;;3.63;3.08;;;21.00;46.00;;;;;;4986723;28;20073;-45
2021/04/15 13:52:38;;;;;;;2.80;2.60;;;21.00;45.60;;;;;;4970954;28;20042;-44
2021/04/15 13:55:28;;;;;;;3.78;3.47;;;21.10;44.60;;;;;;4951421;28;20098;-42
2021/04/15 13:57:54;;;;;;;3.08;2.88;;;21.10;43.40;;;;;;4987717;28;20038;-43
2021/04/15 14:00:37;;;;;;;2.90;2.80;;;21.00;43.60;;;;;;4952979;28;20397;-44
2021/04/15 14:03:03;;;;;;;2.80;2.60;;;21.10;44.10;;;;;;4986240;28;20141;-43
2021/04/15 14:05:37;;;;;;;2.90;2.70;;;21.00;43.50;;;;;;4974184;28;20212;-46
2021/04/15 14:08:48;;;;;;;2.63;2.42;;;21.10;42.50;;;;;;4957039;28;20023;-46
2021/04/15 14:11:28;;;;;;;2.63;2.17;;;21.10;42.50;;;;;;4990032;28;20046;-46
2021/04/15 14:13:55;;;;;;;4.00;2.05;;;21.00;42.80;;;;;;4973264;28;20113;-50
2021/04/15 14:16:21;;;;;;;2.67;2.50;;;21.00;43.30;;;;;;4972486;28;20059;-46
2021/04/15 14:18:46;;;;;;;2.47;2.28;;;20.90;42.30;;;;;;4972842;28;20042;-44
2021/04/15 14:21:24;;;;;;;2.22;2.13;;;21.00;42.30;;;;;;4956873;28;20034;-45
2021/04/15 14:24:00;;;;;;;2.20;2.10;;;21.00;43.30;;;;;;5033422;28;20045;-45
2021/04/15 14:26:33;;;;;;;1.90;1.80;;;21.00;42.70;;;;;;5050002;28;20025;-44
2021/04/15 14:29:07;;;;;;;1.73;1.63;;;21.00;42.20;;;;;;5043127;28;20039;-44
2021/04/15 14:31:36;;;;;;;1.92;1.83;;;21.00;43.30;;;;;;5044597;28;20053;-45
2021/04/15 14:34:01;;;;;;;1.55;1.45;;;21.10;43.70;;;;;;5045682;28;20037;-44
2021/04/15 14:36:34;;;;;;;2.00;1.77;;;21.00;42.90;;;;;;5031367;28;20052;-44
2021/04/15 14:39:10;;;;;;;1.90;1.80;;;21.00;41.80;;;;;;5038634;28;20434;-50
2021/04/15 14:41:36;;;;;;;2.20;1.70;;;20.90;41.90;;;;;;5043891;28;20403;-47
2021/04/15 14:44:18;;;;;;;1.52;1.42;;;20.80;41.40;;;;;;5042275;28;20043;-47
2021/04/15 14:46:44;;;;;;;1.63;1.40;;;20.80;42.30;;;;;;5047410;28;20167;-41
2021/04/15 14:49:27;;;;;;;1.55;1.45;;;20.90;42.00;;;;;;5045283;28;20520;-47
2021/04/15 14:52:15;;;;;;;1.50;1.40;;;20.80;41.50;;;;;;5029512;28;20025;-44
2021/04/15 14:54:41;;;;;;;2.17;1.38;;;20.70;42.20;;;;;;5039451;28;20511;-47
2021/04/15 14:57:09;;;;;;;2.45;1.67;;;20.50;40.30;;;;;;5048631;28;20072;-46
2021/04/15 14:59:37;;;;;;;1.60;1.50;;;20.40;39.10;;;;;;5041313;28;20108;-47
2021/04/15 15:02:23;;;;;;;1.50;1.40;;;20.40;41.70;;;;;;4692869;28;9999967;-45
2021/04/15 15:05:16;;;;;;;1.95;1.30;;;20.50;43.40;;;;;;5046003;28;20040;-40
2021/04/15 15:07:42;;;;;;;2.88;1.63;;;20.60;44.30;;;;;;5047570;28;20040;-43
2021/04/15 15:10:09;;;;;;;2.08;1.23;;;20.70;44.60;;;;;;5042837;28;20143;-46
2021/04/15 15:12:35;;;;;;;1.27;1.27;;;20.80;44.50;;;;;;5023834;28;20029;-46
2021/04/15 15:15:00;;;;;;;1.13;1.10;;;20.90;43.10;;;;;;5044175;28;20059;-45
2021/04/15 15:17:28;;;;;;;2.35;1.30;;;20.90;44.00;;;;;;5040229;28;20029;-46
2021/04/15 15:19:54;;;;;;;1.40;1.30;;;20.90;41.70;;;;;;5042683;28;20033;-38
2021/04/15 15:22:34;;;;;;;1.75;1.20;;;20.80;42.70;;;;;;5043337;28;20043;-44
2021/04/15 15:25:00;;;;;;;1.42;1.33;;;20.70;41.60;;;;;;5043218;28;20128;-43
2021/04/15 15:27:36;;;;;;;1.13;1.13;;;20.70;40.10;;;;;;5044279;28;20056;-43
2021/04/15 15:30:07;;;;;;;1.98;1.30;;;20.70;40.60;;;;;;5042912;28;20036;-45
2021/04/15 15:32:36;;;;;;;1.52;1.33;;;20.60;41.30;;;;;;5047096;28;20025;-44
2021/04/15 15:35:07;;;;;;;2.53;1.50;;;20.60;40.80;;;;;;5042604;28;20036;-47
2021/04/15 15:37:37;;;;;;;1.55;1.42;;;20.60;41.00;;;;;;5043708;28;20025;-46
2021/04/15 15:40:30;;;;;;;1.65;1.15;;;20.50;40.40;;;;;;5042338;28;20018;-45
2021/04/15 15:42:55;;;;;;;1.45;1.35;;;20.60;40.70;;;;;;5042824;28;20040;-46
2021/04/15 15:45:28;;;;;;;1.20;1.10;;;20.60;40.20;;;;;;5042443;28;20752;-45
2021/04/15 15:47:53;;;;;;;2.88;1.65;;;20.60;40.20;;;;;;5035244;28;20602;-49
2021/04/15 15:50:28;;;;;;;1.20;1.10;;;20.60;40.10;;;;;;5041634;28;20057;-46
2021/04/15 15:53:13;;;;;;;1.80;1.10;;;20.60;40.50;;;;;;5047292;28;20031;-45
2021/04/15 15:55:38;;;;;;;1.33;1.27;;;20.60;40.70;;;;;;5046141;28;20568;-48
2021/04/15 15:58:04;;;;;;;1.58;1.48;;;20.60;39.40;;;;;;5042283;28;20025;-45
2021/04/15 16:00:30;;;;;;;1.77;1.20;;;20.60;40.40;;;;;;5043971;28;20029;-44
2021/04/15 16:03:04;;;;;;;1.17;1.08;;;20.60;43.20;;;;;;5040379;28;20033;-45
2021/04/15 16:05:30;;;;;;;3.67;1.10;;;20.50;40.40;;;;;;5034647;28;20037;-45
2021/04/15 16:08:01;;;;;;;1.90;1.70;;;20.60;40.40;;;;;;5045017;28;20311;-46
2021/04/15 16:10:41;;;;;;;2.08;1.90;;;20.40;39.90;;;;;;5041972;28;20060;-48
2021/04/15 16:13:32;;;;;;;1.55;1.45;;;20.30;39.00;;;;;;5041314;28;20029;-41
2021/04/15 16:15:58;;;;;;;1.55;0.98;;;20.30;40.00;;;;;;5043080;28;20582;-44
2021/04/15 16:18:23;;;;;;;1.40;1.30;;;20.40;41.90;;;;;;5036261;28;20091;-45
2021/04/15 16:20:59;;;;;;;1.17;0.95;;;20.60;42.20;;;;;;5042301;28;20087;-43
2021/04/15 16:23:26;;;;;;;1.13;1.02;;;20.50;40.90;;;;;;5040734;28;20045;-44
2021/04/15 16:25:51;;;;;;;1.15;1.00;;;20.50;38.90;;;;;;5039694;28;20055;-42
2021/04/15 16:28:17;;;;;;;2.88;1.20;;;20.30;38.60;;;;;;5042108;28;20040;-41
2021/04/15 16:30:43;;;;;;;1.50;1.40;;;20.20;40.30;;;;;;5043593;28;20029;-45
2021/04/15 16:33:10;;;;;;;2.85;1.40;;;20.20;38.00;;;;;;5037808;28;20044;-44
2021/04/15 16:35:36;;;;;;;1.30;1.20;;;20.20;38.10;;;;;;5042779;28;20083;-48
2021/04/15 16:38:04;;;;;;;1.25;0.80;;;20.30;38.30;;;;;;5038910;28;20065;-42
2021/04/15 16:40:30;;;;;;;1.13;0.85;;;20.40;39.50;;;;;;5036741;28;20120;-43
2021/04/15 16:42:55;;;;;;;1.98;0.93;;;20.60;39.90;;;;;;5039374;28;20047;-45
2021/04/15 16:45:21;;;;;;;1.42;1.00;;;20.70;40.00;;;;;;5037011;28;20087;-43
2021/04/15 16:47:47;;;;;;;1.00;0.90;;;20.70;39.70;;;;;;5036885;28;20076;-44
2021/04/15 16:50:18;;;;;;;1.00;0.80;;;20.80;42.60;;;;;;5033168;28;20029;-46
2021/04/15 16:52:45;;;;;;;1.50;0.73;;;20.80;42.20;;;;;;5044755;28;20510;-46
2021/04/15 16:55:11;;;;;;;0.73;0.60;;;20.60;40.10;;;;;;5043220;28;20052;-47
2021/04/15 16:57:37;;;;;;;1.30;1.20;;;20.60;42.90;;;;;;5037717;28;20064;-44
2021/04/15 17:00:12;;;;;;;0.82;0.82;;;20.50;42.30;;;;;;5040560;28;20078;-43
2021/04/15 17:02:37;;;;;;;2.20;1.30;;;20.40;42.50;;;;;;5040773;28;20041;-44
2021/04/15 17:05:04;;;;;;;1.15;1.13;;;20.40;40.70;;;;;;5047262;28;20032;-43
2021/04/15 17:07:30;;;;;;;2.25;1.13;;;20.30;43.10;;;;;;5040787;28;20037;-45
2021/04/15 17:09:55;;;;;;;1.73;0.98;;;20.40;43.50;;;;;;5045600;28;20033;-40
2021/04/15 17:12:21;;;;;;;2.15;1.00;;;20.30;43.80;;;;;;5040939;28;20410;-44
2021/04/15 17:14:46;;;;;;;3.20;1.08;;;20.30;44.00;;;;;;5046057;28;20037;-52
2021/04/15 17:17:12;;;;;;;1.08;1.00;;;20.40;43.00;;;;;;5048510;28;20025;-43
2021/04/15 17:19:37;;;;;;;0.93;0.93;;;20.40;43.70;;;;;;5046131;28;20450;-45
2021/04/15 17:22:03;;;;;;;2.55;1.00;;;20.40;44.00;;;;;;5040216;28;20028;-44
2021/04/15 17:24:29;;;;;;;1.20;1.10;;;20.30;43.50;;;;;;5042093;28;20111;-44
2021/04/15 17:26:54;;;;;;;0.85;0.85;;;20.30;44.40;;;;;;5043420;28;20042;-44
2021/04/15 17:29:20;;;;;;;1.98;0.70;;;20.30;44.10;;;;;;5046139;28;20029;-43
2021/04/15 17:31:46;;;;;;;0.77;0.77;;;20.20;43.90;;;;;;5044666;28;20033;-43
2021/04/15 17:34:12;;;;;;;5.70;1.15;;;20.30;44.30;;;;;;5040740;28;20064;-42
2021/04/15 17:36:39;;;;;;;1.40;0.90;;;20.30;44.30;;;;;;5036019;28;20033;-42
2021/04/15 17:39:06;;;;;;;0.93;0.90;;;20.40;43.90;;;;;;5044979;28;20032;-42
2021/04/15 17:41:31;;;;;;;0.70;0.70;;;20.30;44.10;;;;;;5040596;28;20498;-42
2021/04/15 17:43:57;;;;;;;0.80;0.80;;;20.30;44.60;;;;;;5040792;28;20029;-45
2021/04/15 17:46:22;;;;;;;1.58;1.00;;;20.30;45.00;;;;;;5044070;28;20025;-44
2021/04/15 17:48:48;;;;;;;0.80;0.80;;;20.30;45.00;;;;;;5040611;28;20128;-45
2021/04/15 17:51:20;;;;;;;1.75;1.65;;;20.30;45.50;;;;;;5035175;28;20041;-44
2021/04/15 17:53:46;;;;;;;2.28;1.58;;;20.30;45.90;;;;;;5040333;28;20079;-43
2021/04/15 17:56:17;;;;;;;1.88;1.77;;;20.30;46.10;;;;;;5041561;28;20041;-42
2021/04/15 17:58:42;;;;;;;3.80;1.95;;;20.30;46.40;;;;;;5041940;28;20025;-43
2021/04/15 18:01:09;;;;;;;2.05;1.95;;;20.20;46.70;;;;;;5038090;28;20036;-43
2021/04/15 18:03:36;;;;;;;1.65;1.60;;;20.20;46.80;;;;;;5044226;28;20036;-43
2021/04/15 18:06:02;;;;;;;2.75;1.63;;;20.30;46.90;;;;;;4694595;28;9999721;-42
2021/04/15 18:08:28;;;;;;;3.05;1.83;;;20.40;46.80;;;;;;5038770;28;20539;-44
2021/04/15 18:10:54;;;;;;;1.20;1.20;;;20.30;46.80;;;;;;5033112;28;20104;-42
2021/04/15 18:13:21;;;;;;;5.03;1.70;;;20.50;46.80;;;;;;5037671;28;20051;-44
2021/04/15 18:15:47;;;;;;;2.80;1.10;;;20.60;46.50;;;;;;5040872;28;20083;-40
2021/04/15 18:18:13;;;;;;;1.75;1.52;;;20.70;46.30;;;;;;5038858;28;20033;-42
2021/04/15 18:20:40;;;;;;;1.50;1.40;;;20.60;46.10;;;;;;5040686;28;20522;-41
2021/04/15 18:23:07;;;;;;;1.50;1.38;;;20.50;46.50;;;;;;5040611;28;20126;-40
2021/04/15 18:25:32;;;;;;;4.30;1.38;;;20.40;47.10;;;;;;5038747;28;20529;-44
2021/04/15 18:27:58;;;;;;;2.92;1.35;;;20.30;47.60;;;;;;5045525;28;20073;-43
2021/04/15 18:30:32;;;;;;;1.58;1.33;;;20.20;48.30;;;;;;5045037;28;20037;-43
2021/04/15 18:32:58;;;;;;;1.40;1.30;;;20.30;48.20;;;;;;5040513;28;20117;-43
2021/04/15 18:35:23;;;;;;;1.35;1.20;;;20.40;48.10;;;;;;5040951;28;20133;-40
2021/04/15 18:37:49;;;;;;;2.08;1.35;;;20.40;49.00;;;;;;5035086;28;20300;-42
2021/04/15 18:40:20;;;;;;;1.25;1.25;;;20.30;49.80;;;;;;5036882;28;20043;-41
2021/04/15 18:42:46;;;;;;;2.28;1.40;;;20.30;49.60;;;;;;5039901;28;20052;-43
2021/04/15 18:45:12;;;;;;;3.28;1.63;;;20.30;51.20;;;;;;5040438;28;20029;-45
2021/04/15 18:47:38;;;;;;;1.30;1.20;;;20.40;52.00;;;;;;5036745;28;20502;-42
2021/04/15 18:50:09;;;;;;;2.92;1.50;;;20.40;51.30;;;;;;5043383;28;20133;-43
2021/04/15 18:52:35;;;;;;;2.35;1.65;;;20.30;51.50;;;;;;5039507;28;20036;-45
2021/04/15 18:55:00;;;;;;;1.92;1.42;;;20.30;52.70;;;;;;5039068;28;20021;-46
2021/04/15 18:57:26;;;;;;;2.30;1.60;;;20.30;54.00;;;;;;5043092;28;20037;-47
2021/04/15 18:59:52;;;;;;;1.30;1.30;;;20.20;53.60;;;;;;5042235;28;20128;-45
2021/04/15 19:02:18;;;;;;;1.45;1.35;;;20.20;54.10;;;;;;5043655;28;20498;-41
2021/04/15 19:04:44;;;;;;;2.90;1.30;;;20.20;54.30;;;;;;5037777;28;20037;-47
2021/04/15 19:07:10;;;;;;;1.77;1.23;;;20.30;53.60;;;;;;5041387;28;20022;-47
2021/04/15 19:09:35;;;;;;;1.65;1.55;;;20.20;53.30;;;;;;5042457;28;20112;-41
2021/04/15 19:12:01;;;;;;;3.58;1.20;;;20.20;53.40;;;;;;5039976;28;20021;-42
2021/04/15 19:14:27;;;;;;;2.13;1.50;;;20.20;53.10;;;;;;5038167;28;20570;-40
2021/04/15 19:16:52;;;;;;;3.03;1.40;;;20.20;53.10;;;;;;5042805;28;20048;-43
2021/04/15 19:19:18;;;;;;;1.30;1.20;;;20.30;52.60;;;;;;5040249;28;20124;-42
2021/04/15 19:21:43;;;;;;;4.88;1.50;;;20.40;52.10;;;;;;5037836;28;20454;-45
2021/04/15 19:24:10;;;;;;;1.52;1.30;;;20.30;51.90;;;;;;5040143;28;20132;-44
2021/04/15 19:26:36;;;;;;;1.40;1.30;;;20.20;51.80;;;;;;5039481;28;20055;-45
2021/04/15 19:29:03;;;;;;;1.35;1.25;;;20.20;51.80;;;;;;5041546;28;20514;-49
2021/04/15 19:31:29;;;;;;;1.80;1.40;;;20.20;52.00;;;;;;5039123;28;20550;-40
2021/04/15 19:33:59;;;;;;;2.75;1.35;;;20.20;52.30;;;;;;5038171;28;20029;-40
2021/04/15 19:36:25;;;;;;;1.20;1.10;;;20.20;52.80;;;;;;5039863;28;20557;-46
2021/04/15 19:38:50;;;;;;;2.13;1.10;;;20.20;52.40;;;;;;5036101;28;20029;-46
2021/04/15 19:41:16;;;;;;;1.00;1.00;;;20.30;53.70;;;;;;5043637;28;20556;-45
2021/04/15 19:43:41;;;;;;;1.17;1.08;;;20.40;53.50;;;;;;5039046;28;20519;-44
2021/04/15 19:46:07;;;;;;;1.55;1.23;;;20.40;53.60;;;;;;5039845;28;20020;-45
2021/04/15 19:48:33;;;;;;;2.80;1.25;;;20.40;54.00;;;;;;5045486;28;20032;-40
2021/04/15 19:51:01;;;;;;;2.20;0.90;;;20.30;54.10;;;;;;5039283;28;20533;-41
2021/04/15 19:53:28;;;;;;;3.92;1.60;;;20.40;53.70;;;;;;5040418;28;20029;-47
2021/04/15 19:55:54;;;;;;;2.85;1.40;;;20.30;54.30;;;;;;5042466;28;20697;-45
2021/04/15 19:58:23;;;;;;;1.15;1.08;;;20.30;55.00;;;;;;5043177;28;20418;-40
2021/04/15 20:00:48;;;;;;;5.38;1.20;;;20.20;54.40;;;;;;5042799;28;20043;-47
2021/04/15 20:03:14;;;;;;;2.85;1.50;;;20.20;54.00;;;;;;5042410;28;20819;-44
2021/04/15 20:05:40;;;;;;;1.52;1.00;;;20.20;54.80;;;;;;5038121;28;20057;-41
2021/04/15 20:08:07;;;;;;;1.75;1.10;;;20.20;54.40;;;;;;5044851;28;20115;-45
2021/04/15 20:10:39;;;;;;;1.38;1.02;;;20.20;54.20;;;;;;5036806;28;20033;-43
2021/04/15 20:13:06;;;;;;;1.33;1.10;;;20.20;55.30;;;;;;5037229;28;20040;-41
2021/04/15 20:15:32;;;;;;;3.40;1.17;;;20.20;54.20;;;;;;5041743;28;20029;-40
2021/04/15 20:17:58;;;;;;;3.05;1.20;;;20.20;53.70;;;;;;5039644;28;20029;-44
2021/04/15 20:20:23;;;;;;;1.55;1.00;;;20.30;53.40;;;;;;5041587;28;20699;-43
2021/04/15 20:22:49;;;;;;;2.17;1.00;;;20.30;53.40;;;;;;5042212;28;20033;-44
2021/04/15 20:25:16;;;;;;;1.42;1.00;;;20.30;53.60;;;;;;5042355;28;20112;-40
2021/04/15 20:27:42;;;;;;;1.02;0.88;;;20.30;53.10;;;;;;5036639;28;20111;-44
2021/04/15 20:30:09;;;;;;;3.08;1.10;;;20.20;53.20;;;;;;5041179;28;20029;-43
2021/04/15 20:32:34;;;;;;;1.63;1.23;;;20.10;53.20;;;;;;5027311;28;20056;-42
2021/04/15 20:35:00;;;;;;;1.13;1.02;;;20.20;53.00;;;;;;5042363;28;20502;-40
2021/04/15 20:37:27;;;;;;;4.20;1.00;;;20.30;53.00;;;;;;5039885;28;20110;-41
2021/04/15 20:39:53;;;;;;;2.38;1.05;;;20.30;52.80;;;;;;5040928;28;20017;-41
2021/04/15 20:42:19;;;;;;;6.45;1.17;;;20.30;53.30;;;;;;5026117;28;20036;-40
2021/04/15 20:44:45;;;;;;;3.00;1.10;;;20.20;52.90;;;;;;5041898;28;20033;-44
2021/04/15 20:47:11;;;;;;;6.13;1.27;;;20.20;53.40;;;;;;5044217;28;20041;-43
2021/04/15 20:49:37;;;;;;;1.38;1.00;;;20.10;53.40;;;;;;5045666;28;20032;-44